< < Back
Terminal Aerodrome Forecast


Current Version              Previous Versions:   1  2  3  4  5  6  7  8  9  

Terminal Aerodrome Forecast

202
FTUS44 KBMX 042320
TAFANB
TAF
KANB 042320Z 0500/0524 21003KT P6SM BKN100
     FM050800 22003KT P6SM VCSH OVC015
     FM051800 24008KT P6SM BKN050=

Latest METAR

976
SAUS70 KWBC 050400 RRB
MTRANB
METAR KANB 050353Z AUTO 26004KT 10SM CLR 22/19 A3008 RMK AO2 SLP179
T02170194


USA.gov is the U.S. government's official web portal to all federal, state and local government web resources and services.